createdAt,value
2022-08-26T05:30:56.549Z,9.88
2022-08-26T05:33:24.323Z,15.00
2022-08-26T05:35:51.848Z,10.40
2022-08-26T05:38:21.856Z,7.43
2022-08-26T05:40:52.738Z,5.05
2022-08-26T05:43:21.137Z,8.25
2022-08-26T05:45:50.416Z,10.63
2022-08-26T05:48:24.204Z,7.68
2022-08-26T05:50:53.269Z,12.35
2022-08-26T05:53:22.071Z,11.65
2022-08-26T05:55:53.148Z,10.68
2022-08-26T05:58:22.075Z,7.18
2022-08-26T06:01:01.705Z,7.90
2022-08-26T06:03:32.373Z,6.38
2022-08-26T06:06:03.010Z,5.50
2022-08-26T06:08:30.241Z,7.68
2022-08-26T06:11:01.579Z,4.25
2022-08-26T06:13:31.888Z,5.55
2022-08-26T06:16:00.315Z,4.13
2022-08-26T06:18:32.792Z,4.78
2022-08-26T06:23:49.844Z,8.63
2022-08-26T06:26:17.560Z,3.58
2022-08-26T06:28:45.755Z,7.00
2022-08-26T06:31:13.963Z,7.15
2022-08-26T06:33:42.702Z,4.05
2022-08-26T06:36:15.053Z,4.68
2022-08-26T06:38:42.568Z,3.88
2022-08-26T06:41:11.442Z,4.57
2022-08-26T06:43:39.002Z,6.13
2022-08-26T06:46:13.210Z,4.32
2022-08-26T06:48:40.597Z,3.95
2022-08-26T06:51:13.806Z,7.63
2022-08-26T06:53:43.281Z,5.13
2022-08-26T06:56:11.914Z,6.13
2022-08-26T06:58:42.218Z,8.27
2022-08-26T07:03:57.583Z,3.22
2022-08-26T07:06:25.767Z,4.18
2022-08-26T07:09:01.217Z,4.22
2022-08-26T07:11:32.409Z,2.92
2022-08-26T07:14:00.230Z,7.03
2022-08-26T07:16:28.881Z,5.57
2022-08-26T07:18:57.463Z,4.43
2022-08-26T07:21:25.894Z,3.70
2022-08-26T07:23:58.720Z,5.15
2022-08-26T07:26:30.803Z,7.13
2022-08-26T07:28:59.406Z,5.88
2022-08-26T07:31:30.421Z,4.57
2022-08-26T07:34:00.007Z,9.68
2022-08-26T07:36:30.218Z,5.28
2022-08-26T07:38:57.851Z,7.60
2022-08-26T07:41:26.016Z,4.90
2022-08-26T07:43:54.777Z,7.40
2022-08-26T07:46:27.260Z,3.58
2022-08-26T07:48:58.690Z,8.25
2022-08-26T07:51:26.637Z,9.43
2022-08-26T07:53:54.524Z,14.40
2022-08-26T07:56:23.280Z,4.10
2022-08-26T07:58:52.092Z,9.27
2022-08-26T08:01:21.667Z,7.22
2022-08-26T08:03:51.687Z,5.25
2022-08-26T08:06:20.820Z,8.85
2022-08-26T08:08:51.661Z,5.03
2022-08-26T08:11:21.514Z,7.30
2022-08-26T08:13:56.075Z,4.97
2022-08-26T08:16:26.293Z,6.28
2022-08-26T08:18:54.221Z,9.68
2022-08-26T08:21:25.044Z,9.68
2022-08-26T08:23:54.053Z,8.45
2022-08-26T08:26:22.438Z,7.82
2022-08-26T08:28:50.998Z,3.58
2022-08-26T08:31:52.520Z,5.05
2022-08-26T08:34:11.646Z,4.82
2022-08-26T08:36:39.085Z,8.23
2022-08-26T08:39:07.134Z,3.92
2022-08-26T08:41:50.556Z,12.88
2022-08-26T08:44:21.589Z,4.47
2022-08-26T08:46:56.182Z,6.78
2022-08-26T08:49:26.014Z,4.70
2022-08-26T08:52:01.398Z,8.90
2022-08-26T08:54:30.811Z,4.35
2022-08-26T08:57:13.000Z,9.95
2022-08-26T08:59:52.061Z,8.05
2022-08-26T09:02:58.688Z,2.67
2022-08-26T09:05:35.881Z,3.40
2022-08-26T09:08:11.172Z,17.27
2022-08-26T09:10:52.320Z,13.95
2022-08-26T09:13:25.100Z,3.08
2022-08-26T09:16:15.848Z,5.85
2022-08-26T09:19:14.196Z,16.27
2022-08-26T09:21:41.545Z,5.45
2022-08-26T09:24:11.150Z,8.88
2022-08-26T09:29:29.326Z,6.07
2022-08-26T09:35:00.300Z,6.35
2022-08-26T09:40:29.559Z,6.55
2022-08-26T09:43:09.966Z,5.18
2022-08-26T09:45:39.171Z,10.93
2022-08-26T09:48:08.580Z,6.63
2022-08-26T09:50:40.104Z,14.35
2022-08-26T09:53:16.283Z,7.13
2022-08-26T09:55:47.594Z,10.32
2022-08-26T09:58:33.971Z,9.05
2022-08-26T10:01:04.206Z,9.68
2022-08-26T10:03:35.956Z,7.88
2022-08-26T10:06:13.486Z,10.40
2022-08-26T10:08:47.597Z,9.15
2022-08-26T10:11:22.727Z,11.27
2022-08-26T10:13:56.721Z,6.95
2022-08-26T10:16:30.385Z,9.40
2022-08-26T10:19:18.974Z,7.38
2022-08-26T10:21:56.167Z,10.52
2022-08-26T10:24:31.453Z,10.85
2022-08-26T10:27:14.528Z,6.18
2022-08-26T10:29:46.683Z,18.63
2022-08-26T10:32:34.752Z,7.03
2022-08-26T10:35:06.496Z,6.97
2022-08-26T10:37:39.742Z,9.20
2022-08-26T10:40:16.255Z,7.60
2022-08-26T10:42:50.365Z,13.48
2022-08-26T10:45:22.018Z,14.80
2022-08-26T10:48:05.935Z,6.03
2022-08-26T10:50:38.014Z,14.38
2022-08-26T10:53:17.258Z,7.32
2022-08-26T10:56:18.596Z,9.15
2022-08-26T11:02:07.408Z,8.02
2022-08-26T11:05:01.951Z,9.10
2022-08-26T11:07:36.838Z,11.63
2022-08-26T11:10:12.261Z,9.90
2022-08-26T11:18:00.900Z,7.07
2022-08-26T11:20:41.805Z,9.75
2022-08-26T11:26:20.410Z,11.85
2022-08-26T11:29:04.480Z,6.45
2022-08-26T11:34:51.826Z,13.23
2022-08-26T11:39:57.034Z,7.10
2022-08-26T11:42:32.418Z,11.43
2022-08-26T11:45:03.520Z,8.07
2022-08-26T11:47:32.921Z,12.45
2022-08-26T11:50:26.627Z,11.02
2022-08-26T11:53:01.507Z,17.77
2022-08-26T11:55:33.492Z,14.45
2022-08-26T11:58:04.750Z,7.72
2022-08-26T12:00:37.686Z,10.87
2022-08-26T12:03:08.383Z,13.68
2022-08-26T12:05:43.450Z,10.98
2022-08-26T12:08:24.655Z,7.38
2022-08-26T12:11:06.336Z,16.02
2022-08-26T12:13:35.319Z,15.30
2022-08-26T12:16:06.555Z,9.52
2022-08-26T12:18:38.127Z,11.25
2022-08-26T12:21:19.044Z,9.90
2022-08-26T12:23:49.950Z,7.20
2022-08-26T12:26:36.078Z,10.38
2022-08-26T12:29:20.339Z,14.07
2022-08-26T12:32:09.386Z,6.45
2022-08-26T12:34:36.995Z,12.35
2022-08-26T12:37:04.363Z,9.93
2022-08-26T12:39:37.968Z,11.68
2022-08-26T12:42:38.542Z,16.55
2022-08-26T12:45:07.765Z,11.50
2022-08-26T12:47:42.714Z,10.55
2022-08-26T12:50:18.824Z,5.88
2022-08-26T12:55:52.773Z,10.17
2022-08-26T13:03:45.349Z,9.25
2022-08-26T13:06:29.965Z,9.52
2022-08-26T13:09:06.514Z,8.50
2022-08-26T13:14:24.134Z,17.60
2022-08-26T13:16:53.367Z,24.55
2022-08-26T13:19:23.865Z,5.28
2022-08-26T13:21:56.767Z,7.32
2022-08-26T13:24:31.579Z,8.55
2022-08-26T13:26:59.013Z,9.38
2022-08-26T13:29:26.239Z,9.20
2022-08-26T13:31:53.648Z,8.63
2022-08-26T13:34:22.855Z,9.05
2022-08-26T13:36:54.111Z,6.40
2022-08-26T13:39:22.059Z,10.00
2022-08-26T13:41:49.927Z,13.60
2022-08-26T13:44:17.807Z,8.57
2022-08-26T13:51:44.861Z,5.47
2022-08-26T13:54:12.095Z,10.98
2022-08-26T13:56:39.714Z,10.77
2022-08-26T13:59:06.976Z,8.43
2022-08-26T14:01:36.107Z,7.82
2022-08-26T14:04:03.722Z,19.02
2022-08-26T14:06:31.509Z,6.10
2022-08-26T14:08:59.098Z,6.38
2022-08-26T14:11:27.698Z,5.78
2022-08-26T14:13:54.889Z,6.28
2022-08-26T14:16:27.172Z,8.70
2022-08-26T14:18:54.859Z,11.80
2022-08-26T14:21:22.273Z,10.68
2022-08-26T14:23:49.584Z,7.50
2022-08-26T14:26:28.288Z,6.30
2022-08-26T14:28:59.569Z,9.95
2022-08-26T14:31:29.341Z,6.65
2022-08-26T14:34:00.235Z,7.72
2022-08-26T14:36:28.477Z,7.60
2022-08-26T14:39:00.249Z,12.50
2022-08-26T14:41:29.182Z,6.90
2022-08-26T14:44:01.446Z,9.18
2022-08-26T14:46:31.259Z,12.80
2022-08-26T14:49:01.709Z,32.00
2022-08-26T14:51:29.906Z,41.00
2022-08-26T14:54:12.146Z,21.00
2022-08-26T14:56:54.995Z,17.53
2022-08-26T14:59:25.631Z,8.93
2022-08-26T15:01:54.365Z,13.18
2022-08-26T15:04:23.148Z,9.13
2022-08-26T15:06:54.542Z,6.72
2022-08-26T15:09:22.837Z,11.60
2022-08-26T15:11:50.797Z,15.30
2022-08-26T15:14:20.084Z,16.98
2022-08-26T15:16:49.464Z,13.52
2022-08-26T15:19:17.724Z,21.60
2022-08-26T15:21:45.692Z,12.10
2022-08-26T15:24:14.740Z,15.73
2022-08-26T15:26:43.133Z,10.73
2022-08-26T15:29:10.599Z,14.43
2022-08-26T15:31:38.002Z,13.48
2022-08-26T15:34:10.992Z,20.35
2022-08-26T15:36:42.686Z,27.35
2022-08-26T15:39:10.554Z,31.85
2022-08-26T15:41:38.055Z,18.98
2022-08-26T15:44:07.482Z,29.70
2022-08-26T15:46:36.443Z,20.05
2022-08-26T15:49:06.431Z,21.05
2022-08-26T15:51:45.179Z,22.63
2022-08-26T15:54:15.967Z,21.30
2022-08-26T15:56:43.730Z,28.08
2022-08-26T15:59:11.986Z,27.75
